sensor_id;sensor_type;location;lat;lon;timestamp;P1;durP1;ratioP1;P2;durP2;ratioP2
3417;SDS011;68007;51.312;12.372;2023-04-15T00:00:41;6.00;;;5.40;;
3417;SDS011;68007;51.312;12.372;2023-04-15T00:03:09;5.67;;;5.10;;
3417;SDS011;68007;51.312;12.372;2023-04-15T00:05:36;5.97;;;5.37;;
3417;SDS011;68007;51.312;12.372;2023-04-15T00:08:04;6.70;;;5.73;;
3417;SDS011;68007;51.312;12.372;2023-04-15T00:10:34;6.47;;;5.83;;
3417;SDS011;68007;51.312;12.372;2023-04-15T00:13:01;7.83;;;6.63;;
3417;SDS011;68007;51.312;12.372;2023-04-15T00:15:29;9.13;;;6.93;;
3417;SDS011;68007;51.312;12.372;2023-04-15T00:17:56;7.40;;;6.70;;
3417;SDS011;68007;51.312;12.372;2023-04-15T00:20:24;7.37;;;6.57;;
3417;SDS011;68007;51.312;12.372;2023-04-15T00:22:51;9.07;;;6.43;;
3417;SDS011;68007;51.312;12.372;2023-04-15T00:25:19;8.23;;;5.90;;
3417;SDS011;68007;51.312;12.372;2023-04-15T00:27:48;5.67;;;5.00;;
3417;SDS011;68007;51.312;12.372;2023-04-15T00:30:15;6.20;;;4.80;;
3417;SDS011;68007;51.312;12.372;2023-04-15T00:32:43;5.47;;;4.90;;
3417;SDS011;68007;51.312;12.372;2023-04-15T00:35:11;4.97;;;4.27;;
3417;SDS011;68007;51.312;12.372;2023-04-15T00:37:39;5.63;;;5.00;;
3417;SDS011;68007;51.312;12.372;2023-04-15T00:40:09;5.70;;;4.50;;
3417;SDS011;68007;51.312;12.372;2023-04-15T00:42:39;5.70;;;4.47;;
3417;SDS011;68007;51.312;12.372;2023-04-15T00:45:08;5.90;;;5.00;;
3417;SDS011;68007;51.312;12.372;2023-04-15T00:47:37;3.90;;;3.60;;
3417;SDS011;68007;51.312;12.372;2023-04-15T00:50:07;5.40;;;4.43;;
3417;SDS011;68007;51.312;12.372;2023-04-15T00:52:35;5.00;;;4.50;;
3417;SDS011;68007;51.312;12.372;2023-04-15T00:55:03;5.57;;;4.27;;
3417;SDS011;68007;51.312;12.372;2023-04-15T00:57:31;5.13;;;4.63;;
3417;SDS011;68007;51.312;12.372;2023-04-15T00:59:59;5.50;;;4.80;;
3417;SDS011;68007;51.312;12.372;2023-04-15T01:02:28;5.93;;;5.23;;
3417;SDS011;68007;51.312;12.372;2023-04-15T01:04:58;5.77;;;4.63;;
3417;SDS011;68007;51.312;12.372;2023-04-15T01:07:25;5.60;;;5.00;;
3417;SDS011;68007;51.312;12.372;2023-04-15T01:09:53;5.57;;;4.97;;
3417;SDS011;68007;51.312;12.372;2023-04-15T01:12:20;4.73;;;4.03;;
3417;SDS011;68007;51.312;12.372;2023-04-15T01:14:48;7.00;;;4.87;;
3417;SDS011;68007;51.312;12.372;2023-04-15T01:17:16;5.53;;;4.87;;
3417;SDS011;68007;51.312;12.372;2023-04-15T01:19:45;7.00;;;5.40;;
3417;SDS011;68007;51.312;12.372;2023-04-15T01:22:13;5.77;;;4.87;;
3417;SDS011;68007;51.312;12.372;2023-04-15T01:24:40;6.00;;;4.87;;
3417;SDS011;68007;51.312;12.372;2023-04-15T01:27:16;9.10;;;5.03;;
3417;SDS011;68007;51.312;12.372;2023-04-15T01:29:44;6.20;;;5.10;;
3417;SDS011;68007;51.312;12.372;2023-04-15T01:32:11;5.37;;;4.87;;
3417;SDS011;68007;51.312;12.372;2023-04-15T01:34:39;6.27;;;4.77;;
3417;SDS011;68007;51.312;12.372;2023-04-15T01:37:07;5.30;;;4.80;;
3417;SDS011;68007;51.312;12.372;2023-04-15T01:39:34;5.73;;;4.37;;
3417;SDS011;68007;51.312;12.372;2023-04-15T01:42:02;6.23;;;4.47;;
3417;SDS011;68007;51.312;12.372;2023-04-15T01:44:31;4.67;;;4.27;;
3417;SDS011;68007;51.312;12.372;2023-04-15T01:46:58;5.60;;;4.63;;
3417;SDS011;68007;51.312;12.372;2023-04-15T01:49:26;4.90;;;4.50;;
3417;SDS011;68007;51.312;12.372;2023-04-15T01:51:53;5.00;;;4.60;;
3417;SDS011;68007;51.312;12.372;2023-04-15T01:54:21;5.63;;;4.83;;
3417;SDS011;68007;51.312;12.372;2023-04-15T01:56:48;6.07;;;5.47;;
3417;SDS011;68007;51.312;12.372;2023-04-15T01:59:16;5.17;;;4.67;;
3417;SDS011;68007;51.312;12.372;2023-04-15T02:01:45;5.27;;;4.77;;
3417;SDS011;68007;51.312;12.372;2023-04-15T02:04:12;5.50;;;5.00;;
3417;SDS011;68007;51.312;12.372;2023-04-15T02:06:41;5.40;;;4.87;;
3417;SDS011;68007;51.312;12.372;2023-04-15T02:09:09;5.60;;;5.10;;
3417;SDS011;68007;51.312;12.372;2023-04-15T02:11:36;5.87;;;5.10;;
3417;SDS011;68007;51.312;12.372;2023-04-15T02:14:04;5.23;;;4.73;;
3417;SDS011;68007;51.312;12.372;2023-04-15T02:16:32;5.60;;;4.97;;
3417;SDS011;68007;51.312;12.372;2023-04-15T02:19:01;5.33;;;4.67;;
3417;SDS011;68007;51.312;12.372;2023-04-15T02:21:29;5.10;;;4.60;;
3417;SDS011;68007;51.312;12.372;2023-04-15T02:23:56;4.43;;;4.03;;
3417;SDS011;68007;51.312;12.372;2023-04-15T02:26:24;3.87;;;3.57;;
3417;SDS011;68007;51.312;12.372;2023-04-15T02:28:51;5.90;;;4.53;;
3417;SDS011;68007;51.312;12.372;2023-04-15T02:31:19;4.97;;;4.47;;
3417;SDS011;68007;51.312;12.372;2023-04-15T02:33:46;5.10;;;4.60;;
3417;SDS011;68007;51.312;12.372;2023-04-15T02:36:15;5.03;;;4.53;;
3417;SDS011;68007;51.312;12.372;2023-04-15T02:38:43;5.80;;;5.13;;
3417;SDS011;68007;51.312;12.372;2023-04-15T02:41:10;5.27;;;4.77;;
3417;SDS011;68007;51.312;12.372;2023-04-15T02:43:38;5.17;;;4.67;;
3417;SDS011;68007;51.312;12.372;2023-04-15T02:46:06;5.60;;;4.40;;
3417;SDS011;68007;51.312;12.372;2023-04-15T02:48:33;4.73;;;4.20;;
3417;SDS011;68007;51.312;12.372;2023-04-15T02:51:11;4.80;;;4.30;;
3417;SDS011;68007;51.312;12.372;2023-04-15T02:53:41;4.57;;;4.10;;
3417;SDS011;68007;51.312;12.372;2023-04-15T02:56:08;5.63;;;4.60;;
3417;SDS011;68007;51.312;12.372;2023-04-15T02:58:36;5.63;;;4.47;;
3417;SDS011;68007;51.312;12.372;2023-04-15T03:01:05;4.63;;;4.23;;
3417;SDS011;68007;51.312;12.372;2023-04-15T03:03:33;7.20;;;5.30;;
3417;SDS011;68007;51.312;12.372;2023-04-15T03:06:01;5.20;;;4.70;;
3417;SDS011;68007;51.312;12.372;2023-04-15T03:08:28;5.47;;;4.77;;
3417;SDS011;68007;51.312;12.372;2023-04-15T03:10:58;6.63;;;5.53;;
3417;SDS011;68007;51.312;12.372;2023-04-15T03:13:27;5.73;;;5.23;;
3417;SDS011;68007;51.312;12.372;2023-04-15T03:15:54;5.97;;;5.30;;
3417;SDS011;68007;51.312;12.372;2023-04-15T03:18:22;7.40;;;6.00;;
3417;SDS011;68007;51.312;12.372;2023-04-15T03:20:49;7.77;;;6.67;;
3417;SDS011;68007;51.312;12.372;2023-04-15T03:23:17;6.50;;;5.90;;
3417;SDS011;68007;51.312;12.372;2023-04-15T03:25:44;7.57;;;6.77;;
3417;SDS011;68007;51.312;12.372;2023-04-15T03:28:13;8.77;;;7.10;;
3417;SDS011;68007;51.312;12.372;2023-04-15T03:30:41;9.47;;;8.30;;
3417;SDS011;68007;51.312;12.372;2023-04-15T03:33:08;9.43;;;7.63;;
3417;SDS011;68007;51.312;12.372;2023-04-15T03:35:36;11.63;;;8.00;;
3417;SDS011;68007;51.312;12.372;2023-04-15T03:38:04;11.37;;;9.57;;
3417;SDS011;68007;51.312;12.372;2023-04-15T03:40:31;9.50;;;8.10;;
3417;SDS011;68007;51.312;12.372;2023-04-15T03:42:58;7.67;;;6.87;;
3417;SDS011;68007;51.312;12.372;2023-04-15T03:45:27;7.90;;;7.10;;
3417;SDS011;68007;51.312;12.372;2023-04-15T03:47:55;8.60;;;6.90;;
3417;SDS011;68007;51.312;12.372;2023-04-15T03:50:22;7.67;;;6.87;;
3417;SDS011;68007;51.312;12.372;2023-04-15T03:52:50;8.10;;;7.17;;
3417;SDS011;68007;51.312;12.372;2023-04-15T03:55:18;6.57;;;5.70;;
3417;SDS011;68007;51.312;12.372;2023-04-15T03:57:45;5.83;;;5.23;;
3417;SDS011;68007;51.312;12.372;2023-04-15T04:00:13;6.20;;;5.10;;
3417;SDS011;68007;51.312;12.372;2023-04-15T04:02:42;6.70;;;5.30;;
3417;SDS011;68007;51.312;12.372;2023-04-15T04:05:10;5.80;;;4.63;;
3417;SDS011;68007;51.312;12.372;2023-04-15T04:07:38;5.70;;;4.53;;
3417;SDS011;68007;51.312;12.372;2023-04-15T04:10:06;5.50;;;5.00;;
3417;SDS011;68007;51.312;12.372;2023-04-15T04:12:34;5.27;;;4.77;;
3417;SDS011;68007;51.312;12.372;2023-04-15T04:15:01;5.30;;;4.80;;
3417;SDS011;68007;51.312;12.372;2023-04-15T04:17:29;4.67;;;4.27;;
3417;SDS011;68007;51.312;12.372;2023-04-15T04:19:57;5.47;;;4.93;;
3417;SDS011;68007;51.312;12.372;2023-04-15T04:22:25;5.80;;;5.00;;
3417;SDS011;68007;51.312;12.372;2023-04-15T04:24:53;5.43;;;4.93;;
3417;SDS011;68007;51.312;12.372;2023-04-15T04:27:20;5.00;;;4.20;;
3417;SDS011;68007;51.312;12.372;2023-04-15T04:29:47;5.40;;;4.60;;
3417;SDS011;68007;51.312;12.372;2023-04-15T04:32:15;5.27;;;4.70;;
3417;SDS011;68007;51.312;12.372;2023-04-15T04:34:43;4.57;;;4.13;;
3417;SDS011;68007;51.312;12.372;2023-04-15T04:37:12;4.70;;;4.30;;
3417;SDS011;68007;51.312;12.372;2023-04-15T04:39:39;4.70;;;4.20;;
3417;SDS011;68007;51.312;12.372;2023-04-15T04:42:07;5.93;;;4.13;;
3417;SDS011;68007;51.312;12.372;2023-04-15T04:44:34;5.50;;;5.00;;
3417;SDS011;68007;51.312;12.372;2023-04-15T04:47:02;4.57;;;4.17;;
3417;SDS011;68007;51.312;12.372;2023-04-15T04:49:29;7.30;;;5.07;;
3417;SDS011;68007;51.312;12.372;2023-04-15T04:51:57;4.53;;;4.10;;
3417;SDS011;68007;51.312;12.372;2023-04-15T04:54:26;5.13;;;4.13;;
3417;SDS011;68007;51.312;12.372;2023-04-15T04:56:54;5.03;;;4.53;;
3417;SDS011;68007;51.312;12.372;2023-04-15T04:59:22;4.40;;;4.00;;
3417;SDS011;68007;51.312;12.372;2023-04-15T05:01:50;5.00;;;4.43;;
3417;SDS011;68007;51.312;12.372;2023-04-15T05:04:17;5.67;;;4.70;;
3417;SDS011;68007;51.312;12.372;2023-04-15T05:06:45;4.40;;;4.00;;
3417;SDS011;68007;51.312;12.372;2023-04-15T05:09:12;4.27;;;3.60;;
3417;SDS011;68007;51.312;12.372;2023-04-15T05:11:41;4.70;;;4.30;;
3417;SDS011;68007;51.312;12.372;2023-04-15T05:14:09;4.40;;;4.00;;
3417;SDS011;68007;51.312;12.372;2023-04-15T05:16:36;4.80;;;4.30;;
3417;SDS011;68007;51.312;12.372;2023-04-15T05:19:04;5.03;;;4.50;;
3417;SDS011;68007;51.312;12.372;2023-04-15T05:21:32;5.57;;;4.70;;
3417;SDS011;68007;51.312;12.372;2023-04-15T05:23:59;6.23;;;4.43;;
3417;SDS011;68007;51.312;12.372;2023-04-15T05:26:27;4.70;;;4.30;;
3417;SDS011;68007;51.312;12.372;2023-04-15T05:28:56;5.13;;;4.63;;
3417;SDS011;68007;51.312;12.372;2023-04-15T05:31:23;4.93;;;4.40;;
3417;SDS011;68007;51.312;12.372;2023-04-15T05:33:51;5.73;;;4.93;;
3417;SDS011;68007;51.312;12.372;2023-04-15T05:36:19;4.93;;;4.53;;
3417;SDS011;68007;51.312;12.372;2023-04-15T05:38:46;4.77;;;4.33;;
3417;SDS011;68007;51.312;12.372;2023-04-15T05:41:13;5.57;;;5.07;;
3417;SDS011;68007;51.312;12.372;2023-04-15T05:43:41;5.30;;;4.80;;
3417;SDS011;68007;51.312;12.372;2023-04-15T05:46:10;5.90;;;5.30;;
3417;SDS011;68007;51.312;12.372;2023-04-15T05:48:37;5.37;;;4.83;;
3417;SDS011;68007;51.312;12.372;2023-04-15T05:51:05;5.13;;;4.63;;
3417;SDS011;68007;51.312;12.372;2023-04-15T05:53:32;4.97;;;4.57;;
3417;SDS011;68007;51.312;12.372;2023-04-15T05:56:00;5.80;;;5.30;;
3417;SDS011;68007;51.312;12.372;2023-04-15T05:58:28;5.17;;;4.50;;
3417;SDS011;68007;51.312;12.372;2023-04-15T06:00:55;5.70;;;5.10;;
3417;SDS011;68007;51.312;12.372;2023-04-15T06:03:24;6.00;;;5.40;;
3417;SDS011;68007;51.312;12.372;2023-04-15T06:05:52;5.87;;;5.27;;
3417;SDS011;68007;51.312;12.372;2023-04-15T06:08:20;5.83;;;4.97;;
3417;SDS011;68007;51.312;12.372;2023-04-15T06:10:48;5.20;;;4.70;;
3417;SDS011;68007;51.312;12.372;2023-04-15T06:13:15;6.10;;;4.73;;
3417;SDS011;68007;51.312;12.372;2023-04-15T06:15:43;5.13;;;4.63;;
3417;SDS011;68007;51.312;12.372;2023-04-15T06:18:10;5.77;;;5.17;;
3417;SDS011;68007;51.312;12.372;2023-04-15T06:20:39;6.27;;;5.17;;
3417;SDS011;68007;51.312;12.372;2023-04-15T06:23:06;5.73;;;5.00;;
3417;SDS011;68007;51.312;12.372;2023-04-15T06:25:34;5.23;;;4.67;;
3417;SDS011;68007;51.312;12.372;2023-04-15T06:28:01;8.20;;;5.37;;
3417;SDS011;68007;51.312;12.372;2023-04-15T06:30:29;6.83;;;4.73;;
3417;SDS011;68007;51.312;12.372;2023-04-15T06:32:57;5.80;;;5.20;;
3417;SDS011;68007;51.312;12.372;2023-04-15T06:35:24;5.50;;;4.97;;
3417;SDS011;68007;51.312;12.372;2023-04-15T06:37:53;5.50;;;5.00;;
3417;SDS011;68007;51.312;12.372;2023-04-15T06:40:21;4.97;;;4.47;;
3417;SDS011;68007;51.312;12.372;2023-04-15T06:42:48;5.20;;;4.70;;
3417;SDS011;68007;51.312;12.372;2023-04-15T06:45:16;4.90;;;4.40;;
3417;SDS011;68007;51.312;12.372;2023-04-15T06:47:44;5.43;;;4.70;;
3417;SDS011;68007;51.312;12.372;2023-04-15T06:50:11;5.23;;;4.53;;
3417;SDS011;68007;51.312;12.372;2023-04-15T06:52:39;5.33;;;4.63;;
3417;SDS011;68007;51.312;12.372;2023-04-15T06:55:08;6.83;;;4.17;;
3417;SDS011;68007;51.312;12.372;2023-04-15T06:57:36;5.90;;;5.40;;
3417;SDS011;68007;51.312;12.372;2023-04-15T07:00:04;4.80;;;4.30;;
3417;SDS011;68007;51.312;12.372;2023-04-15T07:02:32;5.50;;;5.00;;
3417;SDS011;68007;51.312;12.372;2023-04-15T07:04:59;5.83;;;5.23;;
3417;SDS011;68007;51.312;12.372;2023-04-15T07:07:27;6.00;;;5.30;;
3417;SDS011;68007;51.312;12.372;2023-04-15T07:09:55;6.23;;;5.63;;
3417;SDS011;68007;51.312;12.372;2023-04-15T07:12:24;6.37;;;5.73;;
3417;SDS011;68007;51.312;12.372;2023-04-15T07:14:52;7.13;;;5.40;;
3417;SDS011;68007;51.312;12.372;2023-04-15T07:17:20;6.70;;;5.90;;
3417;SDS011;68007;51.312;12.372;2023-04-15T07:19:47;7.40;;;6.60;;
3417;SDS011;68007;51.312;12.372;2023-04-15T07:22:15;7.07;;;5.90;;
3417;SDS011;68007;51.312;12.372;2023-04-15T07:24:42;5.90;;;5.40;;
3417;SDS011;68007;51.312;12.372;2023-04-15T07:27:10;9.00;;;7.00;;
3417;SDS011;68007;51.312;12.372;2023-04-15T07:29:38;7.60;;;6.10;;
3417;SDS011;68007;51.312;12.372;2023-04-15T07:32:06;9.70;;;7.40;;
3417;SDS011;68007;51.312;12.372;2023-04-15T07:34:35;7.63;;;6.40;;
3417;SDS011;68007;51.312;12.372;2023-04-15T07:37:03;6.20;;;5.60;;
3417;SDS011;68007;51.312;12.372;2023-04-15T07:39:30;7.67;;;6.83;;
3417;SDS011;68007;51.312;12.372;2023-04-15T07:41:58;6.13;;;5.50;;
3417;SDS011;68007;51.312;12.372;2023-04-15T07:44:25;8.37;;;5.80;;
3417;SDS011;68007;51.312;12.372;2023-04-15T07:46:55;6.57;;;5.20;;
3417;SDS011;68007;51.312;12.372;2023-04-15T07:49:22;7.00;;;6.30;;
3417;SDS011;68007;51.312;12.372;2023-04-15T07:51:50;7.67;;;6.43;;
3417;SDS011;68007;51.312;12.372;2023-04-15T07:54:17;8.13;;;6.47;;
3417;SDS011;68007;51.312;12.372;2023-04-15T07:56:45;7.83;;;5.70;;
3417;SDS011;68007;51.312;12.372;2023-04-15T07:59:13;6.20;;;5.60;;
3417;SDS011;68007;51.312;12.372;2023-04-15T08:01:42;6.60;;;5.90;;
3417;SDS011;68007;51.312;12.372;2023-04-15T08:04:11;7.70;;;6.40;;
3417;SDS011;68007;51.312;12.372;2023-04-15T08:06:39;9.60;;;6.10;;
3417;SDS011;68007;51.312;12.372;2023-04-15T08:09:06;8.83;;;6.80;;
3417;SDS011;68007;51.312;12.372;2023-04-15T08:11:34;8.67;;;6.97;;
3417;SDS011;68007;51.312;12.372;2023-04-15T08:14:02;8.17;;;6.20;;
3417;SDS011;68007;51.312;12.372;2023-04-15T08:16:29;9.10;;;6.97;;
3417;SDS011;68007;51.312;12.372;2023-04-15T08:18:57;7.50;;;6.13;;
3417;SDS011;68007;51.312;12.372;2023-04-15T08:21:26;7.93;;;6.27;;
3417;SDS011;68007;51.312;12.372;2023-04-15T08:23:55;6.90;;;6.20;;
3417;SDS011;68007;51.312;12.372;2023-04-15T08:26:23;7.77;;;6.40;;
3417;SDS011;68007;51.312;12.372;2023-04-15T08:28:51;7.07;;;5.77;;
3417;SDS011;68007;51.312;12.372;2023-04-15T08:31:18;7.67;;;6.30;;
3417;SDS011;68007;51.312;12.372;2023-04-15T08:33:46;10.30;;;6.90;;
3417;SDS011;68007;51.312;12.372;2023-04-15T08:36:16;8.77;;;6.93;;
3417;SDS011;68007;51.312;12.372;2023-04-15T08:38:46;7.10;;;5.67;;
3417;SDS011;68007;51.312;12.372;2023-04-15T08:41:17;7.10;;;6.00;;
3417;SDS011;68007;51.312;12.372;2023-04-15T08:43:50;7.87;;;6.67;;
3417;SDS011;68007;51.312;12.372;2023-04-15T08:46:20;7.47;;;6.07;;
3417;SDS011;68007;51.312;12.372;2023-04-15T08:48:48;8.30;;;6.37;;
3417;SDS011;68007;51.312;12.372;2023-04-15T08:51:17;6.77;;;6.07;;
3417;SDS011;68007;51.312;12.372;2023-04-15T08:53:44;8.73;;;7.00;;
3417;SDS011;68007;51.312;12.372;2023-04-15T08:56:15;9.50;;;7.23;;
3417;SDS011;68007;51.312;12.372;2023-04-15T08:58:43;11.50;;;7.80;;
3417;SDS011;68007;51.312;12.372;2023-04-15T09:01:12;11.07;;;8.10;;
3417;SDS011;68007;51.312;12.372;2023-04-15T09:03:40;9.97;;;7.87;;
3417;SDS011;68007;51.312;12.372;2023-04-15T09:06:08;9.37;;;7.73;;
3417;SDS011;68007;51.312;12.372;2023-04-15T09:08:36;11.23;;;8.80;;
3417;SDS011;68007;51.312;12.372;2023-04-15T09:11:05;11.27;;;8.73;;
3417;SDS011;68007;51.312;12.372;2023-04-15T09:13:33;12.63;;;8.33;;
3417;SDS011;68007;51.312;12.372;2023-04-15T09:16:00;13.00;;;9.10;;
3417;SDS011;68007;51.312;12.372;2023-04-15T09:18:29;12.80;;;8.93;;
3417;SDS011;68007;51.312;12.372;2023-04-15T09:21:08;14.67;;;9.70;;
3417;SDS011;68007;51.312;12.372;2023-04-15T09:23:39;14.83;;;10.10;;
3417;SDS011;68007;51.312;12.372;2023-04-15T09:26:09;11.60;;;8.70;;
3417;SDS011;68007;51.312;12.372;2023-04-15T09:28:40;12.97;;;9.23;;
3417;SDS011;68007;51.312;12.372;2023-04-15T09:31:08;12.83;;;9.07;;
3417;SDS011;68007;51.312;12.372;2023-04-15T09:33:40;16.67;;;10.10;;
3417;SDS011;68007;51.312;12.372;2023-04-15T09:36:21;13.13;;;9.10;;
3417;SDS011;68007;51.312;12.372;2023-04-15T09:38:53;14.97;;;10.00;;
3417;SDS011;68007;51.312;12.372;2023-04-15T09:41:23;18.77;;;9.93;;
3417;SDS011;68007;51.312;12.372;2023-04-15T09:43:51;12.70;;;9.30;;
3417;SDS011;68007;51.312;12.372;2023-04-15T09:46:19;16.13;;;11.60;;
3417;SDS011;68007;51.312;12.372;2023-04-15T09:48:46;16.20;;;11.03;;
3417;SDS011;68007;51.312;12.372;2023-04-15T09:51:34;15.17;;;10.80;;
3417;SDS011;68007;51.312;12.372;2023-04-15T09:54:02;17.47;;;11.23;;
3417;SDS011;68007;51.312;12.372;2023-04-15T09:56:33;16.70;;;11.70;;
3417;SDS011;68007;51.312;12.372;2023-04-15T09:59:00;16.13;;;11.67;;
3417;SDS011;68007;51.312;12.372;2023-04-15T10:01:28;16.63;;;11.80;;
3417;SDS011;68007;51.312;12.372;2023-04-15T10:03:56;14.33;;;11.20;;
3417;SDS011;68007;51.312;12.372;2023-04-15T10:06:24;16.40;;;11.87;;
3417;SDS011;68007;51.312;12.372;2023-04-15T10:08:52;16.57;;;12.07;;
3417;SDS011;68007;51.312;12.372;2023-04-15T10:11:21;15.87;;;11.20;;
3417;SDS011;68007;51.312;12.372;2023-04-15T10:13:51;17.13;;;12.50;;
3417;SDS011;68007;51.312;12.372;2023-04-15T10:16:19;17.73;;;12.90;;
3417;SDS011;68007;51.312;12.372;2023-04-15T10:18:50;16.70;;;12.83;;
3417;SDS011;68007;51.312;12.372;2023-04-15T10:21:21;16.10;;;11.63;;
3417;SDS011;68007;51.312;12.372;2023-04-15T10:23:51;16.30;;;12.20;;
3417;SDS011;68007;51.312;12.372;2023-04-15T10:26:19;17.13;;;11.93;;
3417;SDS011;68007;51.312;12.372;2023-04-15T10:28:47;19.70;;;13.33;;
3417;SDS011;68007;51.312;12.372;2023-04-15T10:31:17;17.87;;;14.13;;
3417;SDS011;68007;51.312;12.372;2023-04-15T10:33:46;19.07;;;14.30;;
3417;SDS011;68007;51.312;12.372;2023-04-15T10:36:15;21.43;;;14.30;;
3417;SDS011;68007;51.312;12.372;2023-04-15T10:38:43;21.50;;;14.00;;
3417;SDS011;68007;51.312;12.372;2023-04-15T10:41:12;25.10;;;15.20;;
3417;SDS011;68007;51.312;12.372;2023-04-15T10:43:45;22.23;;;15.40;;
3417;SDS011;68007;51.312;12.372;2023-04-15T10:46:18;28.07;;;18.47;;
3417;SDS011;68007;51.312;12.372;2023-04-15T10:48:49;22.80;;;16.37;;
3417;SDS011;68007;51.312;12.372;2023-04-15T10:51:25;23.57;;;16.40;;
3417;SDS011;68007;51.312;12.372;2023-04-15T10:53:55;20.47;;;14.70;;
3417;SDS011;68007;51.312;12.372;2023-04-15T10:56:24;20.07;;;14.43;;
3417;SDS011;68007;51.312;12.372;2023-04-15T10:58:53;21.00;;;15.47;;
3417;SDS011;68007;51.312;12.372;2023-04-15T11:01:22;20.90;;;15.20;;
3417;SDS011;68007;51.312;12.372;2023-04-15T11:07:31;21.03;;;16.00;;
3417;SDS011;68007;51.312;12.372;2023-04-15T11:10:00;23.93;;;15.57;;
3417;SDS011;68007;51.312;12.372;2023-04-15T11:12:32;18.00;;;13.60;;
3417;SDS011;68007;51.312;12.372;2023-04-15T11:17:56;18.93;;;14.80;;
3417;SDS011;68007;51.312;12.372;2023-04-15T11:20:25;20.60;;;16.07;;
3417;SDS011;68007;51.312;12.372;2023-04-15T11:22:53;26.77;;;16.50;;
3417;SDS011;68007;51.312;12.372;2023-04-15T11:25:21;22.07;;;15.80;;
3417;SDS011;68007;51.312;12.372;2023-04-15T11:27:49;24.03;;;16.53;;
3417;SDS011;68007;51.312;12.372;2023-04-15T11:30:17;26.50;;;18.70;;
3417;SDS011;68007;51.312;12.372;2023-04-15T11:32:47;27.10;;;17.00;;
3417;SDS011;68007;51.312;12.372;2023-04-15T11:35:16;29.97;;;19.20;;
3417;SDS011;68007;51.312;12.372;2023-04-15T11:37:44;34.83;;;21.30;;
3417;SDS011;68007;51.312;12.372;2023-04-15T11:40:13;39.93;;;22.37;;
3417;SDS011;68007;51.312;12.372;2023-04-15T11:42:42;34.50;;;20.93;;
3417;SDS011;68007;51.312;12.372;2023-04-15T11:45:11;35.73;;;21.03;;
3417;SDS011;68007;51.312;12.372;2023-04-15T11:47:40;39.23;;;22.47;;
3417;SDS011;68007;51.312;12.372;2023-04-15T11:50:17;36.37;;;20.07;;
3417;SDS011;68007;51.312;12.372;2023-04-15T11:52:54;22.00;;;15.77;;
3417;SDS011;68007;51.312;12.372;2023-04-15T11:55:22;29.60;;;17.90;;
3417;SDS011;68007;51.312;12.372;2023-04-15T11:57:50;33.53;;;17.40;;
3417;SDS011;68007;51.312;12.372;2023-04-15T12:00:31;22.00;;;15.20;;
3417;SDS011;68007;51.312;12.372;2023-04-15T12:03:10;24.37;;;15.17;;
3417;SDS011;68007;51.312;12.372;2023-04-15T12:11:27;16.30;;;12.70;;
3417;SDS011;68007;51.312;12.372;2023-04-15T12:14:02;15.20;;;11.33;;
3417;SDS011;68007;51.312;12.372;2023-04-15T12:16:32;14.20;;;10.97;;
3417;SDS011;68007;51.312;12.372;2023-04-15T12:19:03;12.13;;;9.80;;
3417;SDS011;68007;51.312;12.372;2023-04-15T12:21:36;12.37;;;8.20;;
3417;SDS011;68007;51.312;12.372;2023-04-15T12:24:05;10.63;;;9.00;;
3417;SDS011;68007;51.312;12.372;2023-04-15T12:26:36;11.60;;;8.70;;
3417;SDS011;68007;51.312;12.372;2023-04-15T12:29:09;10.03;;;8.20;;
3417;SDS011;68007;51.312;12.372;2023-04-15T12:31:45;11.17;;;8.83;;
3417;SDS011;68007;51.312;12.372;2023-04-15T12:34:17;11.13;;;8.50;;
3417;SDS011;68007;51.312;12.372;2023-04-15T12:36:52;19.20;;;8.93;;
3417;SDS011;68007;51.312;12.372;2023-04-15T12:39:21;9.60;;;8.30;;
3417;SDS011;68007;51.312;12.372;2023-04-15T12:41:49;11.33;;;8.33;;
3417;SDS011;68007;51.312;12.372;2023-04-15T12:44:17;14.00;;;9.50;;
3417;SDS011;68007;51.312;12.372;2023-04-15T12:46:45;10.33;;;8.80;;
3417;SDS011;68007;51.312;12.372;2023-04-15T12:49:13;11.07;;;8.97;;
3417;SDS011;68007;51.312;12.372;2023-04-15T12:51:41;9.53;;;7.87;;
3417;SDS011;68007;51.312;12.372;2023-04-15T12:54:09;7.90;;;7.10;;
3417;SDS011;68007;51.312;12.372;2023-04-15T12:56:37;7.37;;;6.40;;
3417;SDS011;68007;51.312;12.372;2023-04-15T12:59:04;8.77;;;7.10;;
3417;SDS011;68007;51.312;12.372;2023-04-15T13:01:32;8.63;;;7.13;;
3417;SDS011;68007;51.312;12.372;2023-04-15T13:04:00;11.80;;;6.73;;
3417;SDS011;68007;51.312;12.372;2023-04-15T13:06:27;7.37;;;6.67;;
3417;SDS011;68007;51.312;12.372;2023-04-15T13:08:55;8.47;;;7.20;;
3417;SDS011;68007;51.312;12.372;2023-04-15T13:11:24;8.27;;;6.93;;
3417;SDS011;68007;51.312;12.372;2023-04-15T13:13:52;6.57;;;5.40;;
3417;SDS011;68007;51.312;12.372;2023-04-15T13:16:19;7.43;;;6.33;;
3417;SDS011;68007;51.312;12.372;2023-04-15T13:18:47;7.90;;;6.00;;
3417;SDS011;68007;51.312;12.372;2023-04-15T13:21:14;11.40;;;6.90;;
3417;SDS011;68007;51.312;12.372;2023-04-15T13:23:42;10.53;;;6.10;;
3417;SDS011;68007;51.312;12.372;2023-04-15T13:26:09;7.57;;;5.80;;
3417;SDS011;68007;51.312;12.372;2023-04-15T13:28:39;6.57;;;5.40;;
3417;SDS011;68007;51.312;12.372;2023-04-15T13:31:06;7.50;;;6.03;;
3417;SDS011;68007;51.312;12.372;2023-04-15T13:33:33;9.20;;;6.23;;
3417;SDS011;68007;51.312;12.372;2023-04-15T13:36:01;6.00;;;5.40;;
3417;SDS011;68007;51.312;12.372;2023-04-15T13:38:29;5.97;;;5.10;;
3417;SDS011;68007;51.312;12.372;2023-04-15T13:40:56;6.13;;;5.10;;
3417;SDS011;68007;51.312;12.372;2023-04-15T13:43:24;5.87;;;5.27;;
3417;SDS011;68007;51.312;12.372;2023-04-15T13:45:53;5.93;;;5.33;;
3417;SDS011;68007;51.312;12.372;2023-04-15T13:48:21;5.27;;;4.60;;
3417;SDS011;68007;51.312;12.372;2023-04-15T13:50:49;5.23;;;4.73;;
3417;SDS011;68007;51.312;12.372;2023-04-15T13:53:16;6.00;;;5.40;;
3417;SDS011;68007;51.312;12.372;2023-04-15T13:55:44;6.80;;;5.40;;
3417;SDS011;68007;51.312;12.372;2023-04-15T13:58:11;5.80;;;5.20;;
3417;SDS011;68007;51.312;12.372;2023-04-15T14:00:39;5.60;;;5.00;;
3417;SDS011;68007;51.312;12.372;2023-04-15T14:03:08;6.63;;;5.93;;
3417;SDS011;68007;51.312;12.372;2023-04-15T14:05:36;5.87;;;5.27;;
3417;SDS011;68007;51.312;12.372;2023-04-15T14:08:03;6.00;;;4.93;;
3417;SDS011;68007;51.312;12.372;2023-04-15T14:10:31;6.10;;;5.43;;
3417;SDS011;68007;51.312;12.372;2023-04-15T14:12:58;5.77;;;5.20;;
3417;SDS011;68007;51.312;12.372;2023-04-15T14:15:26;6.60;;;5.57;;
3417;SDS011;68007;51.312;12.372;2023-04-15T14:17:53;8.90;;;5.03;;
3417;SDS011;68007;51.312;12.372;2023-04-15T14:20:22;5.97;;;5.40;;
3417;SDS011;68007;51.312;12.372;2023-04-15T14:22:50;11.63;;;5.83;;
3417;SDS011;68007;51.312;12.372;2023-04-15T14:25:17;5.60;;;4.80;;
3417;SDS011;68007;51.312;12.372;2023-04-15T14:27:45;9.13;;;4.93;;
3417;SDS011;68007;51.312;12.372;2023-04-15T14:30:13;5.30;;;4.60;;
3417;SDS011;68007;51.312;12.372;2023-04-15T14:32:40;4.50;;;4.10;;
3417;SDS011;68007;51.312;12.372;2023-04-15T14:35:08;5.73;;;4.90;;
3417;SDS011;68007;51.312;12.372;2023-04-15T14:37:36;4.87;;;4.20;;
3417;SDS011;68007;51.312;12.372;2023-04-15T14:40:05;4.83;;;4.40;;
3417;SDS011;68007;51.312;12.372;2023-04-15T14:42:33;4.73;;;4.33;;
3417;SDS011;68007;51.312;12.372;2023-04-15T14:45:02;6.60;;;4.90;;
3417;SDS011;68007;51.312;12.372;2023-04-15T14:47:30;4.53;;;3.90;;
3417;SDS011;68007;51.312;12.372;2023-04-15T14:49:57;7.00;;;5.10;;
3417;SDS011;68007;51.312;12.372;2023-04-15T14:52:25;5.37;;;4.40;;
3417;SDS011;68007;51.312;12.372;2023-04-15T14:54:54;6.30;;;5.20;;
3417;SDS011;68007;51.312;12.372;2023-04-15T14:57:21;5.17;;;4.53;;
3417;SDS011;68007;51.312;12.372;2023-04-15T14:59:49;5.00;;;4.53;;
3417;SDS011;68007;51.312;12.372;2023-04-15T15:02:21;5.77;;;5.17;;